• Join FlightAware (Why Join?)
  • Login
  • US Flag 
05:57AM EDT


 

Airport Tracker/Info


-or-


 

Live Flight TrackerFlight Track Log ✈ UAL363 ✈ 06-May-2013 ✈ KIAD - KORD

Flight Track Log - Related Links

Times and Time Zones

All times are in EDT time to prevent confusion due to time zone crossing. See the UAL363 flight status page for this flight to view local times or setup timezone preferences in your user account.

Time Position Orientation Groundspeed Altitude Reporting Facility
EDT Latitude Longitude Course Direction KTS MPH feet Rate Location/Type
10:49PM 38.9861 -77.4878 270° West 192 221 1,500  Level Washington Center
10:50PM 38.9661 -77.5644 251° West 234 269 4,400 2,880 Climbing Washington Center
10:51PM 38.8732 -77.8710 260° West  Level FlightAware Approximate
10:51PM 38.9314 -77.6358 238° Southwest 279 321 7,400  Level Washington Center
10:52PM 38.8939 -78.0088 288° West  Level FlightAware Approximate
10:52PM 38.8900 -77.7358 242° Southwest 284 327 10,800  Level Washington Center
10:53PM 38.9285 -78.1470 288° West  Level FlightAware Approximate
10:53PM 38.8842 -77.8397 266° West 309 356 13,200  Level Washington Center
10:54PM 38.9500 -78.2850 270° West  Level FlightAware Approximate
10:54PM 38.8836 -77.9650 270° West 334 384 16,000  Level Washington Center
10:55PM 38.9231 -78.0892 292° West 355 409 17,900 2,100 Climbing Washington Center
10:56PM 38.9597 -78.2264 289° West 377 434 20,300 2,160 Climbing Washington Center
10:57PM 38.9669 -78.3683 274° West 394 453 22,300 1,980 Climbing Washington Center
10:58PM 38.9717 -78.5181 272° West 412 474 24,200 1,500 Climbing Washington Center
10:59PM 38.9761 -78.6703 272° West 425 489 25,400 1,440 Climbing Washington Center
11:00PM 38.9803 -78.8308 272° West 444 511 27,100 1,500 Climbing Washington Center
11:01PM 38.9842 -78.9939 272° West 452 520 28,500 1,620 Climbing Washington Center
11:02PM 38.9897 -79.1622 272° West 465 535 30,500 1,680 Climbing Washington Center
11:03PM 38.9931 -79.3281 272° West 470 541 32,000 720 Climbing Washington Center
11:04PM 38.9981 -79.4994 272° West 481 554 32,000  Level Washington Center
11:05PM 39.0017 -79.6972 271° West 495 570 32,000  Level Washington Center
11:06PM 39.0039 -79.8736 271° West 500 575 32,000  Level Washington Center
11:07PM 39.0058 -80.0528 271° West 500 575 32,000  Level Washington Center
11:08PM 39.0069 -80.2383 270° West 499 574 32,000  Level Indianapolis Center
11:09PM 39.0100 -80.4186 271° West 503 579 32,000 240 Level Indianapolis Center
11:10PM 39.0575 -80.5892 290° West 520 598 32,600 1,080 Climbing Indianapolis Center
11:11PM 39.1428 -80.7794 300° West 512 589 34,200 1,440 Climbing Indianapolis Center
11:12PM 39.2133 -80.9375 300° West 512 589 35,600 840 Climbing Indianapolis Center
11:13PM 39.2825 -81.0939 300° West 507 583 36,000 180 Climbing Indianapolis Center
11:14PM 39.3531 -81.2533 300° West 513 590 36,000  Level Indianapolis Center
11:15PM 39.4233 -81.4122 300° West 513 590 36,000  Level Indianapolis Center
11:16PM 39.4925 -81.5717 299° West 511 588 36,000  Level Indianapolis Center
11:17PM 39.5622 -81.7325 299° West 514 592 36,000  Level Indianapolis Center
11:18PM 39.6314 -81.8942 299° West 513 590 36,000 -60 Level Indianapolis Center
11:19PM 39.7097 -82.0739 300° West 515 593 35,900  Descending Indianapolis Center
11:20PM 39.7792 -82.2378 299° West 514 592 36,000  Climbing Indianapolis Center
11:21PM 39.8489 -82.4003 299° West 512 589 36,000  Level Indianapolis Center
11:22PM 39.9169 -82.5628 299° West 508 585 36,000 -60 Level Indianapolis Center
11:23PM 39.9861 -82.7261 299° West 510 587 35,900  Descending Indianapolis Center
11:24PM 40.0547 -82.8872 299° West 509 586 36,000  Climbing Indianapolis Center
11:25PM 40.1214 -83.0489 298° West 506 582 36,000 -60 Level Indianapolis Center
11:26PM 40.1844 -83.2028 298° West 486 559 35,900  Descending Indianapolis Center
11:27PM 40.2589 -83.3808 299° West 480 552 36,000  Climbing Indianapolis Center
11:29PM 40.3222 -83.5358 298° West 483 556 36,000 -480 Level Indianapolis Center
11:30PM 40.3856 -83.6908 298° West 482 555 35,100 -1,080 Descending Indianapolis Center
11:31PM 40.4486 -83.8458 298° West 479 551 33,900 -600 Descending Indianapolis Center
11:32PM 40.5133 -84.0056 298° West 490 564 33,900  Level Indianapolis Center
11:33PM 40.5775 -84.1678 298° West 496 571 33,900  Level Indianapolis Center
11:34PM 40.6417 -84.3286 298° West 494 568 34,000  Climbing Indianapolis Center
11:34PM 40.6908 -84.4506 298° West 488 562 34,000 -60 Level Chicago Center
11:35PM 40.7528 -84.6078 298° West 483 556 33,900  Descending Chicago Center
11:36PM 40.8156 -84.7653 298° West 486 559 34,000  Climbing Chicago Center
11:37PM 40.8703 -84.9275 294° West 483 556 34,000  Level Chicago Center
11:39PM 40.9194 -85.0969 291° West 489 563 34,000  Level Chicago Center
11:40PM 40.9703 -85.2633 292° West 490 564 34,000  Level Chicago Center
11:41PM 41.0189 -85.4306 291° West 487 560 34,000  Level Chicago Center
11:42PM 41.0783 -85.6325 291° West 488 562 34,000 -180 Level Chicago Center
11:43PM 41.1269 -85.8006 291° West 487 560 33,700 -1,320 Descending Chicago Center
11:44PM 41.1750 -85.9656 291° West 482 555 31,400 -2,820 Descending Chicago Center
11:45PM 41.2239 -86.1292 292° West 478 550 28,100 -2,940 Descending Chicago Center
11:46PM 41.2708 -86.2919 291° West 474 545 25,500 -2,640 Descending Chicago Center
11:47PM 41.3144 -86.4489 290° West 460 529 22,800 -2,880 Descending Chicago Center
11:48PM 41.3575 -86.5969 291° West 439 505 19,700 -2,820 Descending Chicago Center
11:49PM 41.3978 -86.7394 291° West 424 488 17,200 -2,640 Descending Chicago Center
11:50PM 41.4375 -86.8792 291° West 409 471 14,400 -2,460 Descending Chicago Center
11:51PM 41.4767 -87.0108 292° West 391 450 12,300 -1,680 Descending Chicago Center
11:52PM 41.5097 -87.1397 289° West 376 433 11,100 -840 Descending Chicago Center
11:52PM 41.5500 -87.2167 305° West 370 426 11,000 -60 Descending Chicago TRACON
11:53PM 41.6333 -87.3333 314° West 368 423 11,000  Level Chicago TRACON
11:54PM 41.6392 -87.3522 292° West 372 428 11,000  Level Chicago Center
11:55PM 41.7169 -87.4747 310° West 364 419 11,000  Level Chicago Center
11:56PM 41.7828 -87.5797 310° West 371 427 11,000  Level Chicago Center
11:57PM 41.8333 -87.6667 308° West 321 369 11,000 -360 Level Chicago TRACON
11:57PM 41.8667 -87.7333 304° West 293 337 10,400 -1,320 Descending Chicago TRACON
11:58PM 41.8833 -87.8500 281° West 306 352 8,700 -1,200 Descending Chicago TRACON
12:00AM 41.8833 -87.9500 270° West 259 298 7,900 -960 Descending Chicago TRACON
12:00AM 41.8833 -88.0333 270° West 243 280 6,700 -1,260 Descending Chicago TRACON
12:02AM 41.8833 -88.1500 270° West 235 270 5,300 -1,260 Descending Chicago TRACON
12:03AM 41.9500 -88.1667 349° North 229 264 4,000 -1,320 Descending Chicago TRACON